Time;durP1;ratioP1;P1;durP2;ratioP2;P2;SDS_P1;SDS_P2;PMS_P1;PMS_P2;Temp;Humidity;BMP_temperature;BMP_pressure;BME280_temperature;BME280_humidity;BME280_pressure;Samples;Min_cycle;Max_cycle;Signal;HPM_P1;HPM_P2
2022/12/23 00:00:05;;;;;;;;;;;8.80;99.90;;;8.13;100.00;96198.31;5021375;28;19916;-48
2022/12/23 00:02:31;;;;;;;;;;;8.80;99.90;;;8.14;100.00;96187.75;5018915;28;21447;-49
2022/12/23 00:04:57;;;;;;;;;;;8.80;99.90;;;8.13;100.00;96186.06;5004745;28;19925;-49
2022/12/23 00:07:22;;;;;;;;;;;8.80;99.90;;;8.14;100.00;96193.00;5018569;28;19936;-46
2022/12/23 00:09:48;;;;;;;;;;;8.80;99.90;;;8.13;100.00;96196.56;5018290;28;20662;-48
2022/12/23 00:15:07;;;;;;;;;;;8.70;99.90;;;8.14;100.00;96200.03;5024250;28;20300;-47
2022/12/23 00:17:33;;;;;;;;;;;8.70;99.90;;;8.13;100.00;96195.69;5028144;28;20294;-48
2022/12/23 00:19:59;;;;;;;;;;;8.80;99.90;;;8.16;100.00;96200.81;5032950;28;19954;-48
2022/12/23 00:23:03;;;;;;;;;;;8.70;99.90;;;8.18;100.00;96196.34;5030413;28;19925;-45
2022/12/23 00:25:11;;;;;;;;;;;8.80;99.90;;;8.20;100.00;96197.09;5022046;28;19975;-50
2022/12/23 00:27:37;;;;;;;;;;;8.80;99.90;;;8.16;100.00;96185.91;5025432;28;19928;-48
2022/12/23 00:30:04;;;;;;;;;;;8.80;99.90;;;8.22;100.00;96198.75;5029760;28;20034;-47
2022/12/23 00:32:30;;;;;;;;;;;8.80;99.90;;;8.18;100.00;96178.81;5025385;28;20626;-45
2022/12/23 00:34:56;;;;;;;;;;;8.80;99.90;;;8.13;100.00;96179.94;5028385;28;20059;-44
2022/12/23 00:37:21;;;;;;;;;;;8.80;99.90;;;8.14;100.00;96185.13;5028678;28;19923;-44
2022/12/23 00:45:15;;;;;;;;;;;8.70;99.90;;;8.24;100.00;96198.69;5032320;28;19924;-46
2022/12/23 00:50:27;;;;;;;;;;;8.90;99.90;;;8.27;100.00;96195.91;5028202;28;20007;-48
2022/12/23 00:52:52;;;;;;;;;;;8.90;99.90;;;8.35;100.00;96203.44;5031847;28;20051;-46
2022/12/23 00:55:18;;;;;;;;;;;8.90;99.90;;;8.37;100.00;96207.69;5033812;28;20069;-45
2022/12/23 00:57:44;;;;;;;;;;;9.00;99.90;;;8.38;100.00;96205.91;5033555;28;19924;-44
2022/12/23 01:00:10;;;;;;;;;;;9.00;99.90;;;8.41;100.00;96219.75;5028020;28;19916;-47
2022/12/23 01:05:36;;;;;;;;;;;9.00;99.90;;;8.48;100.00;96207.22;5028825;28;20054;-46
2022/12/23 01:08:10;;;;;;;;;;;9.10;99.90;;;8.55;100.00;96228.78;5026953;28;20008;-47
2022/12/23 01:10:37;;;;;;;;;;;9.10;99.90;;;8.62;100.00;96216.22;5032050;28;20087;-48
2022/12/23 01:13:03;;;;;;;;;;;9.20;99.90;;;8.67;100.00;96236.09;5031021;28;19921;-47
2022/12/23 01:15:29;;;;;;;;;;;9.20;99.90;;;8.62;100.00;96226.72;5030763;28;20597;-48
2022/12/23 01:17:55;;;;;;;;;;;9.20;99.90;;;8.68;100.00;96231.69;5034149;28;20502;-49
2022/12/23 01:20:20;;;;;;;;;;;9.30;99.90;;;8.64;100.00;96225.72;5035835;28;19928;-46
2022/12/23 01:22:46;;;;;;;;;;;9.30;99.90;;;8.74;100.00;96244.53;5029904;28;20186;-47
2022/12/23 01:25:12;;;;;;;;;;;9.30;99.90;;;8.74;100.00;96234.88;5030728;28;19968;-49
2022/12/23 01:27:37;;;;;;;;;;;9.30;99.90;;;8.75;100.00;96244.44;5032365;28;20284;-49
2022/12/23 01:30:04;;;;;;;;;;;9.40;99.90;;;8.74;100.00;96244.53;5034185;28;19924;-45
2022/12/23 01:32:29;;;;;;;;;;;9.40;99.90;;;8.79;100.00;96253.03;5026273;28;19929;-46
2022/12/23 01:34:55;;;;;;;;;;;9.40;99.90;;;8.81;100.00;96251.22;5013925;28;19921;-49
2022/12/23 01:37:21;;;;;;;;;;;9.40;99.90;;;8.83;100.00;96252.00;5028724;28;19956;-48
2022/12/23 01:39:46;;;;;;;;;;;9.40;99.90;;;8.89;100.00;96258.72;5029739;28;19921;-50
2022/12/23 01:45:13;;;;;;;;;;;9.40;99.90;;;8.90;100.00;96261.28;5034622;28;19966;-48
2022/12/23 01:47:47;;;;;;;;;;;9.50;99.90;;;8.88;100.00;96265.78;5032626;28;20554;-49
2022/12/23 01:50:16;;;;;;;;;;;9.50;99.90;;;8.96;100.00;96257.50;5021197;28;20317;-49
2022/12/23 01:52:45;;;;;;;;;;;9.60;99.90;;;9.00;100.00;96264.31;4984373;28;19925;-47
2022/12/23 01:55:12;;;;;;;;;;;9.60;99.90;;;9.01;100.00;96266.03;5004767;28;19955;-46
2022/12/23 02:05:39;;;;;;;;;;;9.70;99.90;;;9.11;100.00;96284.81;5026525;28;19986;-39
2022/12/23 02:11:05;;;;;;;;;;;9.70;99.90;;;9.19;100.00;96298.47;5014790;28;19962;-38
2022/12/23 02:13:34;;;;;;;;;;;9.80;99.90;;;9.23;100.00;96302.63;5032760;28;20028;-38
2022/12/23 02:16:17;;;;;;;;;;;9.80;99.90;;;9.26;100.00;96305.13;5003056;28;19940;-39
2022/12/23 02:18:51;;;;;;;;;;;9.80;99.90;;;9.30;100.00;96308.44;5011988;28;20407;-38
2022/12/23 02:21:36;;;;;;;;;;;9.90;99.90;;;9.32;100.00;96307.44;5024694;28;19990;-38
2022/12/23 02:24:01;;;;;;;;;;;9.90;99.90;;;9.38;100.00;96318.59;5028841;28;20023;-38
2022/12/23 02:26:55;;;;;;;;;;;10.00;99.90;;;9.38;100.00;96318.59;5027850;28;19920;-38
2022/12/23 02:29:46;;;;;;;;;;;9.90;99.90;;;9.40;100.00;96327.25;5025600;28;20472;-38
2022/12/23 02:32:18;;;;;;;;;;;10.00;99.90;;;9.41;100.00;96331.59;5010370;28;19928;-38
2022/12/23 02:34:57;;;;;;;;;;;10.00;99.90;;;9.44;100.00;96336.69;5010820;28;19917;-39
2022/12/23 02:37:33;;;;;;;;;;;10.00;99.90;;;9.44;100.00;96332.31;5004970;28;20249;-39
2022/12/23 02:43:28;;;;;;;;;;;10.00;99.90;;;9.47;100.00;96340.03;5022274;28;19928;-39
2022/12/23 02:46:01;;;;;;;;;;;10.10;99.90;;;9.36;100.00;96329.19;5011574;28;19924;-39
2022/12/23 02:48:37;;;;;;;;;;;10.00;99.90;;;9.49;100.00;96343.47;5030060;28;20624;-39
2022/12/23 02:51:04;;;;;;;;;;;10.10;99.90;;;9.49;100.00;96353.13;5013840;28;19931;-38
2022/12/23 02:53:34;;;;;;;;;;;10.10;99.90;;;9.49;100.00;96358.38;5008701;28;19929;-38
2022/12/23 02:56:01;;;;;;;;;;;10.10;99.90;;;9.44;100.00;96353.34;5029146;28;19962;-38
2022/12/23 02:58:31;;;;;;;;;;;10.10;99.90;;;9.50;100.00;96360.09;5032744;28;20676;-39
2022/12/23 03:00:56;;;;;;;;;;;10.10;99.90;;;9.49;100.00;96364.50;5005685;28;20034;-39
2022/12/23 03:03:22;;;;;;;;;;;10.10;99.90;;;9.52;100.00;96374.03;5003353;28;20475;-39
2022/12/23 03:05:49;;;;;;;;;;;10.10;99.90;;;9.51;100.00;96375.81;5006488;28;19924;-39
2022/12/23 03:08:19;;;;;;;;;;;10.10;99.90;;;9.53;100.00;96373.13;5026478;28;19975;-39
2022/12/23 03:11:01;;;;;;;;;;;10.10;99.90;;;9.57;100.00;96377.28;5002735;28;19927;-39
2022/12/23 03:13:27;;;;;;;;;;;10.10;99.90;;;9.56;100.00;96375.56;5027141;28;19924;-39
2022/12/23 03:16:20;;;;;;;;;;;10.10;99.90;;;9.58;100.00;96384.25;5030486;28;20964;-39
2022/12/23 03:18:53;;;;;;;;;;;10.10;99.90;;;9.56;100.00;96378.19;5009263;28;20397;-39
2022/12/23 03:21:42;;;;;;;;;;;10.10;99.90;;;9.58;100.00;96389.50;5009140;28;20008;-39
2022/12/23 03:24:17;;;;;;;;;;;10.10;99.90;;;9.60;100.00;96395.56;5018707;28;20796;-39
2022/12/23 03:26:52;;;;;;;;;;;10.20;99.90;;;9.60;100.00;96397.31;5017488;28;19939;-39
2022/12/23 03:29:25;;;;;;;;;;;10.20;99.90;;;9.59;100.00;96407.00;5035323;28;19970;-39
2022/12/23 03:31:52;;;;;;;;;;;10.20;99.90;;;9.62;100.00;96406.00;5005331;28;20537;-39
2022/12/23 03:34:21;;;;;;;;;;;10.20;99.90;;;9.63;100.00;96418.25;5017927;28;19987;-39
2022/12/23 03:36:54;;;;;;;;;;;10.20;99.90;;;9.61;100.00;96397.25;5018930;28;19928;-39
2022/12/23 03:39:21;;;;;;;;;;;10.20;99.90;;;9.58;100.00;96404.44;5034695;28;19932;-39
2022/12/23 03:41:51;;;;;;;;;;;10.20;99.90;;;9.59;100.00;96412.28;5011371;28;20025;-39
2022/12/23 03:44:23;;;;;;;;;;;10.10;99.90;;;9.57;100.00;96411.50;5016858;28;19925;-39
2022/12/23 03:46:53;;;;;;;;;;;10.10;99.90;;;9.61;100.00;96407.78;5007435;28;20316;-39
2022/12/23 03:49:24;;;;;;;;;;;10.10;99.90;;;9.62;100.00;96421.78;5035496;28;19964;-39
2022/12/23 03:51:55;;;;;;;;;;;10.10;99.90;;;9.55;100.00;96408.94;5015375;28;19917;-39
2022/12/23 03:54:30;;;;;;;;;;;10.20;99.90;;;9.59;100.00;96416.69;5010128;28;19925;-39
2022/12/23 03:57:00;;;;;;;;;;;10.10;99.90;;;9.57;100.00;96408.88;5027614;28;19979;-39
2022/12/23 03:59:27;;;;;;;;;;;10.10;99.90;;;9.62;100.00;96409.50;5012293;28;19924;-39
2022/12/23 04:02:04;;;;;;;;;;;10.10;99.90;;;9.62;100.00;96408.63;5029256;28;19967;-39
2022/12/23 04:04:49;;;;;;;;;;;10.10;99.90;;;9.58;100.00;96418.47;5012011;28;20438;-36
2022/12/23 04:07:19;;;;;;;;;;;10.10;99.90;;;9.49;100.00;96414.53;5014500;28;19967;-36
2022/12/23 04:09:45;;;;;;;;;;;10.00;99.90;;;9.52;100.00;96422.25;5013175;28;20331;-36
2022/12/23 04:12:12;;;;;;;;;;;10.00;99.90;;;9.46;100.00;96419.06;5011673;28;20347;-36
2022/12/23 04:14:45;;;;;;;;;;;10.00;99.90;;;9.43;100.00;96419.22;5028670;28;20195;-37
2022/12/23 04:17:10;;;;;;;;;;;9.90;99.90;;;9.42;100.00;96420.13;5014261;28;19916;-37
2022/12/23 04:19:36;;;;;;;;;;;9.90;99.90;;;9.45;100.00;96422.63;5015738;28;19985;-37
2022/12/23 04:22:02;;;;;;;;;;;9.90;99.90;;;9.40;100.00;96419.34;5014541;28;19970;-37
2022/12/23 04:24:27;;;;;;;;;;;9.90;99.90;;;9.34;100.00;96423.97;5027179;28;19973;-37
2022/12/23 04:26:53;;;;;;;;;;;9.90;99.90;;;9.41;100.00;96431.59;5027781;28;19925;-37
2022/12/23 04:29:19;;;;;;;;;;;9.90;99.90;;;9.38;100.00;96421.22;5033647;28;20354;-37
2022/12/23 04:31:44;;;;;;;;;;;9.90;99.90;;;9.50;100.00;96431.16;5027434;28;19917;-37
2022/12/23 04:34:10;;;;;;;;;;;10.00;99.90;;;9.58;100.00;96426.34;5025008;28;19948;-38
2022/12/23 04:36:35;;;;;;;;;;;10.10;99.90;;;9.61;100.00;96415.69;5031515;28;20679;-38
2022/12/23 04:39:01;;;;;;;;;;;10.10;99.90;;;9.64;100.00;96426.06;5031933;28;19917;-37
2022/12/23 04:41:27;;;;;;;;;;;10.20;99.90;;;9.74;100.00;96431.72;5028106;28;19959;-37
2022/12/23 04:43:52;;;;;;;;;;;10.20;99.90;;;9.72;100.00;96434.44;5025917;28;22144;-37
2022/12/23 04:46:18;;;;;;;;;;;10.20;99.90;;;9.68;100.00;96438.16;5023343;28;20365;-37
2022/12/23 04:48:43;;;;;;;;;;;10.30;99.90;;;9.65;100.00;96447.97;5015049;28;19917;-37
2022/12/23 04:51:09;;;;;;;;;;;10.20;99.90;;;9.69;100.00;96445.13;5029949;28;19917;-37
2022/12/23 04:53:35;;;;;;;;;;;10.20;99.90;;;9.71;100.00;96448.53;5032240;28;19952;-37
2022/12/23 04:56:01;;;;;;;;;;;10.20;99.90;;;9.74;100.00;96458.06;5030758;28;19939;-37
2022/12/23 04:58:27;;;;;;;;;;;10.30;99.90;;;9.79;100.00;96466.59;5036114;28;19932;-37
2022/12/23 05:01:04;;;;;;;;;;;10.30;99.90;;;9.80;100.00;96477.97;5025101;28;20559;-37
2022/12/23 05:03:30;;;;;;;;;;;10.30;99.90;;;9.81;100.00;96479.69;5029105;28;20174;-37
2022/12/23 05:05:56;;;;;;;;;;;10.40;99.90;;;9.86;100.00;96485.59;5022894;28;20396;-37
2022/12/23 05:08:21;;;;;;;;;;;10.40;99.90;;;9.83;100.00;96477.81;5027925;28;19917;-38
2022/12/23 05:10:47;;;;;;;;;;;10.40;99.90;;;9.73;100.00;96446.69;5026958;28;19917;-37
2022/12/23 05:13:13;;;;;;;;;;;10.40;99.90;;;9.89;100.00;96461.75;5024923;28;20369;-37
2022/12/23 05:15:38;;;;;;;;;;;10.50;99.90;;;9.92;100.00;96469.47;5029104;28;19956;-37
2022/12/23 05:18:04;;;;;;;;;;;10.50;99.90;;;9.96;100.00;96485.97;5029928;28;20232;-38
2022/12/23 05:20:30;;;;;;;;;;;10.50;99.90;;;9.93;100.00;96479.09;5029043;28;19983;-37
2022/12/23 05:22:55;;;;;;;;;;;10.50;99.90;;;10.03;100.00;96480.34;5003706;28;19924;-37
2022/12/23 05:25:21;;;;;;;;;;;10.60;99.90;;;10.05;100.00;96491.66;5029950;28;19952;-37
2022/12/23 05:27:46;;;;;;;;;;;10.60;99.90;;;10.08;100.00;96490.63;5029610;28;19920;-37
2022/12/23 05:30:12;;;;;;;;;;;10.60;99.90;;;10.08;100.00;96491.47;5029129;28;19920;-37
2022/12/23 05:32:38;;;;;;;;;;;10.60;99.90;;;10.08;100.00;96495.91;5024489;28;20428;-37
2022/12/23 05:35:04;;;;;;;;;;;10.60;99.90;;;10.08;100.00;96485.38;5024983;28;20023;-37
2022/12/23 05:37:30;;;;;;;;;;;10.60;99.90;;;10.09;100.00;96492.38;5031028;28;19921;-37
2022/12/23 05:39:55;;;;;;;;;;;10.60;99.90;;;10.03;100.00;96480.34;5032334;28;19939;-37
2022/12/23 05:42:21;;;;;;;;;;;10.60;99.90;;;10.10;100.00;96480.88;5030498;28;20387;-37
2022/12/23 05:44:47;;;;;;;;;;;10.70;99.90;;;10.05;100.00;96485.53;5026552;28;19920;-38
2022/12/23 05:47:12;;;;;;;;;;;10.70;99.90;;;10.08;100.00;96488.00;5027003;28;23198;-37
2022/12/23 05:49:38;;;;;;;;;;;10.60;99.90;;;10.07;100.00;96497.69;5033453;28;19978;-37
2022/12/23 05:52:04;;;;;;;;;;;10.60;99.90;;;10.09;100.00;96506.38;5032686;28;19921;-38
2022/12/23 05:54:29;;;;;;;;;;;10.60;99.90;;;10.10;100.00;96509.84;5026251;28;19921;-38
2022/12/23 05:56:55;;;;;;;;;;;10.60;99.90;;;10.10;100.00;96508.09;5030090;28;19932;-38
2022/12/23 05:59:20;;;;;;;;;;;10.60;99.90;;;10.10;100.00;96510.72;5033481;28;20010;-38
2022/12/23 06:01:46;;;;;;;;;;;10.60;99.90;;;10.08;100.00;96507.28;5021615;28;19970;-38
2022/12/23 06:04:12;;;;;;;;;;;10.60;99.90;;;10.07;100.00;96516.13;5027543;28;20020;-38
2022/12/23 06:06:37;;;;;;;;;;;10.60;99.90;;;10.06;100.00;96506.53;5030893;28;19931;-38
2022/12/23 06:09:03;;;;;;;;;;;10.60;99.90;;;10.06;100.00;96509.16;5025759;28;20021;-38
2022/12/23 06:11:28;;;;;;;;;;;10.60;99.90;;;10.06;100.00;96506.53;5030370;28;20009;-38
2022/12/23 06:13:54;;;;;;;;;;;10.60;99.90;;;10.05;100.00;96510.09;5016761;28;20080;-38
2022/12/23 06:16:20;;;;;;;;;;;10.60;99.90;;;10.06;100.00;96510.94;5028860;28;20454;-38
2022/12/23 06:18:46;;;;;;;;;;;10.60;99.90;;;10.04;100.00;96505.75;5030348;28;19975;-38
2022/12/23 06:21:11;;;;;;;;;;;10.50;99.90;;;10.03;100.00;96514.59;5025909;28;20019;-38
2022/12/23 06:23:37;;;;;;;;;;;10.50;99.90;;;10.01;100.00;96508.53;5027618;28;19917;-38
2022/12/23 06:26:02;;;;;;;;;;;10.50;99.90;;;10.01;100.00;96503.25;5031713;28;19924;-38
2022/12/23 06:28:28;;;;;;;;;;;10.50;99.90;;;10.00;100.00;96506.00;5034006;28;19989;-38
2022/12/23 06:30:55;;;;;;;;;;;10.50;99.90;;;10.00;100.00;96501.56;5026434;28;19925;-38
2022/12/23 06:33:21;;;;;;;;;;;10.50;99.90;;;9.97;100.00;96499.06;5026628;28;20024;-38
2022/12/23 06:35:47;;;;;;;;;;;10.50;99.90;;;9.98;100.00;96507.81;5031785;28;19920;-38
2022/12/23 06:38:12;;;;;;;;;;;10.50;99.90;;;9.93;100.00;96513.31;5030416;28;19967;-38
2022/12/23 06:40:38;;;;;;;;;;;10.50;99.90;;;9.99;100.00;96513.00;5028365;28;20022;-38
2022/12/23 06:43:03;;;;;;;;;;;10.50;99.90;;;9.99;100.00;96515.66;5030015;28;20189;-38
2022/12/23 06:45:29;;;;;;;;;;;10.50;99.90;;;9.97;100.00;96503.50;5029887;28;19943;-38
2022/12/23 06:47:55;;;;;;;;;;;10.50;99.90;;;10.00;100.00;96513.88;5029557;28;19928;-38
2022/12/23 06:50:20;;;;;;;;;;;10.50;99.90;;;9.97;100.00;96516.66;5027551;28;20012;-37
2022/12/23 06:52:47;;;;;;;;;;;10.50;99.90;;;9.98;100.00;96526.25;5028570;28;20044;-38
2022/12/23 06:55:13;;;;;;;;;;;10.50;99.90;;;9.81;100.00;96492.84;5007210;28;20196;-38
2022/12/23 06:57:39;;;;;;;;;;;10.50;99.90;;;9.95;100.00;96519.38;5027242;28;19921;-38
2022/12/23 07:00:06;;;;;;;;;;;10.50;99.90;;;9.94;100.00;96520.28;5023206;28;19970;-38
2022/12/23 07:02:32;;;;;;;;;;;10.50;99.90;;;9.93;100.00;96531.75;5029607;28;20442;-37
2022/12/23 07:04:57;;;;;;;;;;;10.40;99.90;;;9.92;100.00;96533.56;5024057;28;19975;-37
2022/12/23 07:07:23;;;;;;;;;;;10.50;99.90;;;9.91;100.00;96531.00;5011213;28;19925;-37
2022/12/23 07:09:49;;;;;;;;;;;10.40;99.90;;;9.87;100.00;96522.38;5010336;28;19952;-37
2022/12/23 07:12:14;;;;;;;;;;;10.40;99.90;;;9.91;100.00;96529.19;4994961;28;19998;-37
2022/12/23 07:14:40;;;;;;;;;;;10.40;99.90;;;9.91;100.00;96538.88;5022462;28;19952;-38
2022/12/23 07:17:05;;;;;;;;;;;10.40;99.90;;;9.89;100.00;96538.97;5026448;28;20407;-38
2022/12/23 07:19:31;;;;;;;;;;;10.40;99.90;;;9.90;100.00;96539.81;5009569;28;20391;-38
2022/12/23 07:21:57;;;;;;;;;;;10.40;99.90;;;9.75;100.00;96518.53;5031315;28;19963;-38
2022/12/23 07:24:22;;;;;;;;;;;10.40;99.90;;;9.91;100.00;96539.72;5023870;28;19917;-38
2022/12/23 07:26:48;;;;;;;;;;;10.40;99.90;;;9.92;100.00;96536.19;5031620;28;20583;-38
2022/12/23 07:29:14;;;;;;;;;;;10.50;99.90;;;9.90;100.00;96537.16;5033464;28;19931;-37
2022/12/23 07:31:39;;;;;;;;;;;10.40;99.90;;;9.89;100.00;96532.84;5029635;28;21023;-38
2022/12/23 07:34:05;;;;;;;;;;;10.40;99.90;;;9.85;100.00;96533.91;5021590;28;19971;-37
2022/12/23 07:36:30;;;;;;;;;;;10.40;99.90;;;9.87;100.00;96530.28;5023398;28;19927;-37
2022/12/23 07:38:56;;;;;;;;;;;10.40;99.90;;;9.84;100.00;96542.75;5031340;28;19979;-38
2022/12/23 07:41:22;;;;;;;;;;;10.40;99.90;;;9.85;100.00;96545.31;5031958;28;19956;-37
2022/12/23 07:43:48;;;;;;;;;;;10.40;99.90;;;9.83;100.00;96527.84;5030884;28;19924;-38
2022/12/23 07:46:13;;;;;;;;;;;10.40;99.90;;;9.99;100.00;96544.63;5029112;28;19920;-38
2022/12/23 07:48:40;;;;;;;;;;;10.50;99.90;;;9.97;100.00;96520.16;5031798;28;20284;-38
2022/12/23 07:51:06;;;;;;;;;;;10.50;99.90;;;10.02;100.00;96536.59;5030083;28;19916;-38
2022/12/23 07:53:32;;;;;;;;;;;10.50;99.90;;;10.01;100.00;96545.41;5027425;28;19929;-38
2022/12/23 07:55:57;;;;;;;;;;;10.50;99.90;;;10.00;100.00;96548.97;5017445;28;19994;-38
2022/12/23 07:58:23;;;;;;;;;;;10.50;99.90;;;9.98;100.00;96550.84;5033217;22;20232;-53
2022/12/23 08:00:49;;;;;;;;;;;10.50;99.90;;;9.99;100.00;96563.06;5036831;28;19935;-54
2022/12/23 08:03:14;;;;;;;;;;;10.50;99.90;;;10.00;100.00;96559.50;5051860;28;19920;-52
2022/12/23 08:05:40;;;;;;;;;;;10.50;99.90;;;10.00;100.00;96556.88;5044391;28;20054;-54
2022/12/23 08:08:06;;;;;;;;;;;10.50;99.90;;;10.01;100.00;96555.94;5044607;28;21515;-54
2022/12/23 08:10:31;;;;;;;;;;;10.50;99.90;;;10.01;100.00;96566.47;5075699;28;20406;-53
2022/12/23 08:13:00;;;;;;;;;;;10.60;99.90;;;10.04;100.00;96566.34;5069756;28;19928;-54
2022/12/23 08:15:25;;;;;;;;;;;10.60;99.90;;;10.11;100.00;96573.00;5069304;28;20011;-53
2022/12/23 08:17:54;;;;;;;;;;;10.70;99.90;;;10.14;100.00;96582.56;5065169;28;19920;-53
2022/12/23 08:20:20;;;;;;;;;;;10.70;99.90;;;10.16;100.00;96580.72;5068590;28;19920;-53
2022/12/23 08:22:45;;;;;;;;;;;10.70;99.90;;;10.18;100.00;96575.38;5067584;28;19969;-53
2022/12/23 08:25:11;;;;;;;;;;;10.80;99.90;;;10.20;100.00;96581.41;5068793;28;20043;-54
2022/12/23 08:27:37;;;;;;;;;;;10.80;99.90;;;10.27;100.00;96577.56;5067157;28;20422;-53
2022/12/23 08:30:03;;;;;;;;;;;10.80;99.90;;;10.32;100.00;96580.84;5059166;28;19978;-51
2022/12/23 08:32:28;;;;;;;;;;;10.90;99.90;;;10.35;100.00;96575.41;5061142;28;20387;-54
2022/12/23 08:34:56;;;;;;;;;;;10.90;99.90;;;10.40;100.00;96581.31;5071090;28;19970;-54
2022/12/23 08:37:21;;;;;;;;;;;10.90;99.90;;;10.43;100.00;96577.69;5079267;28;20401;-50
2022/12/23 08:39:47;;;;;;;;;;;11.00;99.90;;;10.48;100.00;96581.81;5070481;28;19920;-52
2022/12/23 08:42:13;;;;;;;;;;;11.00;99.90;;;10.51;100.00;96575.50;5071016;28;19916;-49
2022/12/23 08:44:38;;;;;;;;;;;11.00;99.90;;;10.50;100.00;96565.91;5072419;28;19935;-51
2022/12/23 08:47:04;;;;;;;;;;;11.00;99.90;;;10.50;100.00;96564.13;5069464;28;20057;-50
2022/12/23 08:49:29;;;;;;;;;;;11.00;99.90;;;10.50;100.00;96566.75;5064670;28;19938;-53
2022/12/23 08:51:55;;;;;;;;;;;11.00;99.90;;;10.44;100.00;96556.50;5074721;28;20391;-52
2022/12/23 08:54:22;;;;;;;;;;;11.00;99.90;;;10.47;100.00;96566.91;5075032;28;19931;-52
2022/12/23 08:56:48;;;;;;;;;;;11.00;99.90;;;10.48;100.00;96559.84;5069670;28;19924;-52
2022/12/23 08:59:15;;;;;;;;;;;11.00;99.90;;;10.49;100.00;96556.28;5069264;28;19924;-52
2022/12/23 09:01:41;;;;;;;;;;;11.00;99.90;;;10.47;100.00;96553.72;5071864;28;19916;-53
2022/12/23 09:04:07;;;;;;;;;;;11.00;99.90;;;10.53;100.00;96559.63;5073021;28;19924;-53
2022/12/23 09:06:37;;;;;;;;;;;11.10;99.90;;;10.55;100.00;96568.28;5070432;28;19924;-54
2022/12/23 09:09:03;;;;;;;;;;;11.10;99.90;;;10.56;100.00;96570.03;5064838;28;19932;-54
2022/12/23 09:11:29;;;;;;;;;;;11.10;99.90;;;10.59;100.00;96576.00;5069160;28;22828;-51
2022/12/23 09:13:57;;;;;;;;;;;11.10;99.90;;;10.60;100.00;96577.69;5071833;28;19928;-50
2022/12/23 09:16:22;;;;;;;;;;;11.10;99.90;;;10.61;100.00;96578.56;5071408;28;19920;-52
2022/12/23 09:18:48;;;;;;;;;;;11.10;99.90;;;10.58;100.00;96570.78;5072081;28;19930;-51
2022/12/23 09:21:17;;;;;;;;;;;11.20;99.90;;;10.67;100.00;96575.59;5070446;28;19923;-49
2022/12/23 09:23:42;;;;;;;;;;;11.10;99.90;;;10.64;100.00;96563.44;5061619;28;19967;-50
2022/12/23 09:26:08;;;;;;;;;;;11.20;99.90;;;10.78;100.00;96570.63;5073357;28;20003;-52
2022/12/23 09:28:34;;;;;;;;;;;11.30;99.90;;;10.81;100.00;96573.13;5055951;28;20348;-52
2022/12/23 09:31:07;;;;;;;;;;;11.30;99.90;;;10.83;100.00;96567.75;5065540;28;19927;-48
2022/12/23 09:33:33;;;;;;;;;;;11.30;99.90;;;10.81;100.00;96564.34;5067524;28;19927;-57
2022/12/23 09:35:59;;;;;;;;;;;11.30;99.90;;;10.82;100.00;96568.69;5071139;28;19961;-52
2022/12/23 09:38:25;;;;;;;;;;;11.30;99.90;;;10.83;100.00;96551.94;5060146;28;19977;-52
2022/12/23 09:40:50;;;;;;;;;;;11.30;99.90;;;10.88;100.00;96558.69;5048195;28;19928;-52
2022/12/23 09:43:38;;;;;;;;;;;11.40;99.90;;;10.91;100.00;96548.91;5063405;28;20479;-52
2022/12/23 09:46:17;;;;;;;;;;;11.40;99.90;;;10.82;100.00;96524.72;5062453;28;20375;-56
2022/12/23 09:49:03;;;;;;;;;;;11.40;99.90;;;10.97;100.00;96530.97;5045491;28;19924;-59
2022/12/23 09:51:29;;;;;;;;;;;11.50;99.90;;;11.02;100.00;96531.59;5056278;28;19992;-57
2022/12/23 09:54:01;;;;;;;;;;;11.50;99.90;;;11.04;100.00;96531.50;5061548;28;19928;-58
2022/12/23 09:56:36;;;;;;;;;;;11.60;99.90;;;11.06;100.00;96529.63;5047559;28;19924;-56
2022/12/23 09:59:28;;;;;;;;;;;11.50;99.90;;;11.08;100.00;96546.25;5064425;28;20006;-58
2022/12/23 10:02:16;;;;;;;;;;;11.60;99.90;;;11.08;100.00;96539.16;5069995;28;19932;-60
2022/12/23 10:04:58;;;;;;;;;;;11.60;99.90;;;11.05;100.00;96531.44;5061182;28;20382;-53
2022/12/23 10:07:32;;;;;;;;;;;11.60;99.90;;;10.93;100.00;96512.72;5078210;28;19924;-55
2022/12/23 10:10:05;;;;;;;;;;;11.50;99.90;;;11.02;100.00;96523.66;5067478;28;20436;-54
2022/12/23 10:12:36;;;;;;;;;;;11.50;99.90;;;11.01;100.00;96518.47;5058100;28;19928;-53
2022/12/23 10:15:25;;;;;;;;;;;11.50;99.90;;;11.01;100.00;96513.19;5048179;28;20380;-54
2022/12/23 10:17:54;;;;;;;;;;;11.50;99.90;;;10.98;100.00;96521.25;5057100;28;19923;-52
2022/12/23 10:20:30;;;;;;;;;;;11.50;99.90;;;11.00;100.00;96529.94;5075755;28;19931;-57
2022/12/23 10:22:57;;;;;;;;;;;11.50;99.90;;;11.00;100.00;96516.75;5060095;28;20344;-49
2022/12/23 10:25:34;;;;;;;;;;;11.60;99.90;;;11.10;100.00;96517.97;5065591;28;19935;-52
2022/12/23 10:28:00;;;;;;;;;;;11.60;99.90;;;11.15;100.00;96513.31;5071812;28;19924;-49
2022/12/23 10:30:30;;;;;;;;;;;11.60;99.90;;;11.19;100.00;96509.56;5064455;28;19942;-56
2022/12/23 10:33:19;;;;;;;;;;;11.70;99.90;;;11.27;100.00;96514.47;5059503;28;20502;-52
2022/12/23 10:36:02;;;;;;;;;;;11.80;99.90;;;11.32;100.00;96506.28;5063809;28;19931;-56
2022/12/23 10:38:39;;;;;;;;;;;11.80;99.90;;;11.28;100.00;96481.84;5073277;28;20434;-55
2022/12/23 10:41:27;;;;;;;;;;;11.90;99.90;;;11.46;100.00;96501.94;5071304;28;19973;-55
2022/12/23 10:43:56;;;;;;;;;;;12.00;99.90;;;11.52;100.00;96495.50;5073322;28;19916;-56
2022/12/23 10:46:35;;;;;;;;;;;12.10;99.90;;;11.59;100.00;96495.97;5066147;28;20002;-55
2022/12/23 10:49:28;;;;;;;;;;;12.10;99.90;;;11.69;100.00;96483.13;5060567;28;19916;-56
2022/12/23 10:51:58;;;;;;;;;;;12.20;99.90;;;11.75;100.00;96480.13;5083292;28;19924;-57
2022/12/23 10:54:33;;;;;;;;;;;12.20;99.90;;;11.74;100.00;96470.53;5064582;28;22273;-57
2022/12/23 10:57:00;;;;;;;;;;;12.20;99.90;;;11.73;100.00;96468.81;5073169;28;19920;-50
2022/12/23 10:59:28;;;;;;;;;;;12.20;99.90;;;11.65;100.00;96462.16;5059882;28;19924;-50
2022/12/23 11:02:08;;;;;;;;;;;12.20;99.90;;;11.65;100.00;96463.97;5060448;28;19924;-48
2022/12/23 11:04:35;;;;;;;;;;;12.10;99.90;;;11.59;100.00;96467.81;5053894;28;19965;-50
2022/12/23 11:07:02;;;;;;;;;;;12.10;99.90;;;11.51;100.00;96459.44;5052002;28;19920;-52
2022/12/23 11:09:37;;;;;;;;;;;12.10;99.90;;;11.50;100.00;96456.88;5060882;28;19924;-51
2022/12/23 11:12:05;;;;;;;;;;;12.00;99.90;;;11.34;100.00;96444.56;5060165;28;19923;-53
2022/12/23 11:14:42;;;;;;;;;;;12.00;99.90;;;11.48;100.00;96464.06;5063408;28;19924;-52
2022/12/23 11:17:21;;;;;;;;;;;12.00;99.90;;;11.46;100.00;96453.56;5059614;28;19931;-54
2022/12/23 11:19:49;;;;;;;;;;;12.00;99.90;;;11.44;100.00;96445.72;5055906;28;20074;-48
2022/12/23 11:22:33;;;;;;;;;;;12.00;99.90;;;11.32;100.00;96420.00;5062941;28;19927;-55
2022/12/23 11:25:30;;;;;;;;;;;12.00;99.90;;;11.46;100.00;96438.56;5058712;28;19920;-56
2022/12/23 11:28:02;;;;;;;;;;;12.00;99.90;;;11.49;100.00;96432.28;5067280;28;19955;-56
2022/12/23 11:30:30;;;;;;;;;;;12.00;99.90;;;11.49;100.00;96426.16;5060811;28;19920;-52
2022/12/23 11:32:56;;;;;;;;;;;12.00;99.90;;;11.49;100.00;96429.66;5062299;28;19924;-56
2022/12/23 11:35:30;;;;;;;;;;;12.10;99.90;;;11.54;100.00;96417.03;5045328;28;20340;-56
2022/12/23 11:37:57;;;;;;;;;;;12.10;99.90;;;11.48;100.00;96396.25;5049912;28;19916;-56
2022/12/23 11:40:26;;;;;;;;;;;12.10;99.90;;;11.62;100.00;96412.16;5066901;28;20555;-56
2022/12/23 11:42:57;;;;;;;;;;;12.10;99.90;;;11.67;100.00;96403.16;5053514;28;21623;-52
2022/12/23 11:45:26;;;;;;;;;;;12.20;99.90;;;11.74;100.00;96409.78;5048427;28;19932;-48
2022/12/23 11:47:52;;;;;;;;;;;12.20;99.90;;;11.81;100.00;96405.84;5048304;28;19924;-53
2022/12/23 11:50:32;;;;;;;;;;;12.30;99.90;;;11.82;100.00;96402.25;5051469;28;19924;-51
2022/12/23 11:53:22;;;;;;;;;;;12.40;99.90;;;11.90;100.00;96410.63;5045677;28;19971;-51